createdAt,value
2022-10-08T00:02:09.631Z,15.08
2022-10-08T00:07:09.416Z,15.06
2022-10-08T00:12:09.343Z,15.03
2022-10-08T00:17:09.284Z,15.02
2022-10-08T00:22:09.207Z,15.02
2022-10-08T00:27:09.148Z,15.01
2022-10-08T00:32:09.075Z,14.93
2022-10-08T00:37:09.012Z,14.83
2022-10-08T00:42:08.939Z,14.73
2022-10-08T00:47:08.876Z,14.69
2022-10-08T00:52:08.802Z,14.68
2022-10-08T00:57:08.741Z,14.65
2022-10-08T01:02:08.831Z,14.62
2022-10-08T01:07:08.614Z,14.58
2022-10-08T01:12:08.535Z,14.50
2022-10-08T01:17:08.475Z,14.41
2022-10-08T01:22:08.405Z,14.30
2022-10-08T01:27:08.347Z,14.18
2022-10-08T01:32:08.373Z,14.04
2022-10-08T01:37:08.417Z,13.92
2022-10-08T01:42:08.149Z,13.78
2022-10-08T01:47:08.103Z,13.61
2022-10-08T01:52:08.032Z,13.53
2022-10-08T01:57:07.956Z,13.53
2022-10-08T02:02:07.960Z,13.58
2022-10-08T02:07:07.827Z,13.61
2022-10-08T02:12:07.753Z,13.61
2022-10-08T02:17:07.730Z,13.64
2022-10-08T02:22:07.618Z,13.66
2022-10-08T02:27:07.565Z,13.64
2022-10-08T02:32:07.573Z,13.66
2022-10-08T02:37:07.434Z,13.67
2022-10-08T02:42:07.351Z,13.73
2022-10-08T02:47:07.292Z,13.77
2022-10-08T02:52:07.219Z,13.77
2022-10-08T02:57:09.501Z,13.69
2022-10-08T03:02:07.155Z,13.61
2022-10-08T03:07:07.032Z,13.56
2022-10-08T03:12:06.955Z,13.53
2022-10-08T03:17:06.892Z,13.48
2022-10-08T03:22:06.819Z,13.48
2022-10-08T03:27:06.767Z,13.45
2022-10-08T03:32:06.695Z,13.43
2022-10-08T03:37:06.627Z,13.40
2022-10-08T03:42:06.580Z,13.41
2022-10-08T03:47:06.500Z,13.45
2022-10-08T03:52:06.453Z,13.51
2022-10-08T03:57:06.466Z,13.55
2022-10-08T04:02:06.307Z,13.59
2022-10-08T04:07:06.233Z,13.61
2022-10-08T04:12:06.175Z,13.61
2022-10-08T04:17:06.101Z,13.61
2022-10-08T04:22:06.045Z,13.56
2022-10-08T04:27:05.973Z,13.58
2022-10-08T04:32:05.915Z,13.56
2022-10-08T04:37:05.849Z,13.55
2022-10-08T04:42:05.785Z,13.51
2022-10-08T04:47:05.712Z,13.46
2022-10-08T04:52:05.653Z,13.38
2022-10-08T04:57:05.578Z,13.37
2022-10-08T05:02:05.599Z,13.31
2022-10-08T05:07:05.444Z,13.28
2022-10-08T05:12:05.385Z,13.22
2022-10-08T05:17:05.313Z,13.18
2022-10-08T05:22:05.262Z,13.19
2022-10-08T05:27:05.177Z,13.19
2022-10-08T05:32:05.128Z,13.19
2022-10-08T05:37:05.045Z,13.19
2022-10-08T05:42:04.993Z,13.27
2022-10-08T05:47:04.914Z,13.33
2022-10-08T05:52:04.857Z,13.31
2022-10-08T05:57:04.773Z,13.28
2022-10-08T06:02:04.713Z,13.27
2022-10-08T06:07:04.641Z,13.30
2022-10-08T06:12:04.579Z,13.34
2022-10-08T06:17:04.504Z,13.45
2022-10-08T06:22:04.447Z,13.59
2022-10-08T06:27:04.441Z,13.77
2022-10-08T06:32:04.315Z,14.29
2022-10-08T06:37:04.243Z,14.63
2022-10-08T06:42:04.198Z,14.91
2022-10-08T06:47:04.186Z,15.13
2022-10-08T06:52:04.064Z,15.13
2022-10-08T06:57:03.983Z,15.10
2022-10-08T07:02:04.025Z,15.35
2022-10-08T07:07:03.848Z,15.61
2022-10-08T07:12:03.802Z,16.23
2022-10-08T07:17:03.714Z,16.53
2022-10-08T07:22:03.666Z,17.22
2022-10-08T07:27:03.601Z,18.66
2022-10-08T07:32:03.528Z,19.53
2022-10-08T07:37:03.454Z,19.99
2022-10-08T07:42:03.388Z,20.06
2022-10-08T07:47:03.321Z,20.36
2022-10-08T07:52:03.254Z,21.22
2022-10-08T07:57:03.188Z,22.34
2022-10-08T08:02:03.214Z,21.55
2022-10-08T08:07:03.044Z,22.56
2022-10-08T08:12:02.987Z,23.62
2022-10-08T08:17:02.914Z,24.95
2022-10-08T08:22:02.854Z,25.28
2022-10-08T08:27:02.785Z,25.99
2022-10-08T08:32:02.813Z,26.59
2022-10-08T08:37:02.655Z,26.44
2022-10-08T08:42:02.603Z,26.07
2022-10-08T08:47:02.533Z,26.77
2022-10-08T08:52:02.469Z,27.05
2022-10-08T08:57:02.401Z,25.72
2022-10-08T09:02:02.328Z,23.91
2022-10-08T09:07:02.268Z,22.66
2022-10-08T09:12:02.212Z,22.60
2022-10-08T09:17:02.248Z,21.99
2022-10-08T09:22:02.074Z,21.18
2022-10-08T09:27:01.993Z,20.96
2022-10-08T09:32:01.938Z,20.61
2022-10-08T09:37:01.876Z,20.19
2022-10-08T09:42:01.810Z,20.61
2022-10-08T09:47:01.732Z,20.14
2022-10-08T09:52:01.679Z,22.03
2022-10-08T09:57:01.606Z,23.27
2022-10-08T10:02:01.548Z,25.00
2022-10-08T10:07:01.481Z,25.78
2022-10-08T10:12:01.417Z,25.13
2022-10-08T10:17:01.449Z,23.61
2022-10-08T10:22:01.285Z,22.69
2022-10-08T10:27:01.219Z,22.40
2022-10-08T10:32:01.166Z,21.54
2022-10-08T10:37:01.087Z,21.02
2022-10-08T10:42:01.020Z,21.95
2022-10-08T10:47:00.959Z,22.70
2022-10-08T10:52:00.901Z,22.17
2022-10-08T10:57:00.834Z,22.17
2022-10-08T11:02:00.841Z,21.37
2022-10-08T11:07:00.717Z,20.34
2022-10-08T11:12:00.626Z,19.85
2022-10-08T11:17:00.570Z,19.86
2022-10-08T11:22:00.503Z,20.06
2022-10-08T11:27:00.435Z,19.62
2022-10-08T11:32:00.373Z,19.48
2022-10-08T11:37:00.305Z,19.48
2022-10-08T11:42:00.237Z,19.33
2022-10-08T11:47:00.166Z,19.14
2022-10-08T11:52:00.104Z,19.06
2022-10-08T11:57:00.029Z,18.71
2022-10-08T12:01:59.961Z,18.47
2022-10-08T12:06:59.891Z,18.40
2022-10-08T12:11:59.826Z,18.24
2022-10-08T12:16:59.780Z,18.10
2022-10-08T12:21:59.702Z,18.12
2022-10-08T12:26:59.634Z,18.25
2022-10-08T12:31:59.554Z,18.33
2022-10-08T12:36:59.502Z,18.37
2022-10-08T12:41:59.419Z,18.27
2022-10-08T12:46:59.433Z,17.97
2022-10-08T12:51:59.291Z,17.78
2022-10-08T12:56:59.229Z,17.67
2022-10-08T13:01:59.247Z,17.63
2022-10-08T13:06:59.094Z,17.51
2022-10-08T13:12:03.245Z,17.33
2022-10-08T13:16:58.965Z,17.24
2022-10-08T13:21:58.882Z,17.09
2022-10-08T13:26:58.832Z,16.91
2022-10-08T13:31:58.750Z,16.93
2022-10-08T13:36:58.708Z,17.14
2022-10-08T13:41:58.618Z,17.27
2022-10-08T13:47:03.280Z,17.36
2022-10-08T13:51:58.491Z,17.41
2022-10-08T13:56:58.433Z,17.45
2022-10-08T14:01:58.429Z,17.34
2022-10-08T14:06:58.295Z,17.38
2022-10-08T14:11:58.413Z,17.33
2022-10-08T14:16:58.300Z,17.31
2022-10-08T14:21:59.085Z,17.33
2022-10-08T14:26:58.025Z,17.33
2022-10-08T14:31:58.066Z,17.36
2022-10-08T14:36:57.939Z,17.33
2022-10-08T14:41:57.824Z,17.27
2022-10-08T14:46:57.932Z,17.19
2022-10-08T14:51:57.684Z,16.94
2022-10-08T14:56:57.649Z,16.75
2022-10-08T15:01:57.566Z,16.49
2022-10-08T15:06:57.498Z,16.30
2022-10-08T15:11:57.419Z,16.10
2022-10-08T15:16:57.364Z,15.97
2022-10-08T15:21:57.282Z,15.90
2022-10-08T15:26:57.498Z,15.84
2022-10-08T15:31:57.223Z,15.77
2022-10-08T15:36:57.101Z,15.42
2022-10-08T15:41:57.017Z,15.01
2022-10-08T15:46:59.369Z,14.66
2022-10-08T15:51:56.881Z,14.32
2022-10-08T15:56:56.835Z,14.02
2022-10-08T16:01:56.815Z,13.88
2022-10-08T16:06:56.682Z,13.74
2022-10-08T16:11:56.609Z,13.66
2022-10-08T16:16:56.666Z,13.56
2022-10-08T16:21:56.477Z,13.45
2022-10-08T16:26:56.417Z,13.53
2022-10-08T16:31:56.345Z,13.56
2022-10-08T16:36:56.287Z,13.41
2022-10-08T16:41:56.213Z,13.19
2022-10-08T16:46:56.165Z,13.00
2022-10-08T16:51:56.083Z,12.85
2022-10-08T16:56:56.033Z,12.70
2022-10-08T17:01:56.228Z,12.56
2022-10-08T17:06:55.900Z,12.44
2022-10-08T17:11:55.813Z,12.35
2022-10-08T17:16:55.842Z,12.23
2022-10-08T17:21:55.682Z,12.14
2022-10-08T17:26:55.619Z,12.06
2022-10-08T17:31:55.544Z,11.98
2022-10-08T17:36:55.484Z,11.90
2022-10-08T17:41:55.410Z,11.91
2022-10-08T17:46:55.351Z,11.94
2022-10-08T17:51:55.277Z,11.93
2022-10-08T17:56:55.215Z,11.93
2022-10-08T18:01:55.230Z,11.90
2022-10-08T18:06:58.583Z,11.94
2022-10-08T18:11:55.007Z,11.98
2022-10-08T18:16:54.949Z,12.02
2022-10-08T18:21:54.875Z,12.05
2022-10-08T18:26:54.817Z,12.05
2022-10-08T18:31:54.741Z,11.98
2022-10-08T18:36:54.683Z,11.87
2022-10-08T18:41:54.619Z,11.75
2022-10-08T18:46:54.547Z,11.62
2022-10-08T18:51:54.484Z,11.51
2022-10-08T18:56:54.415Z,11.43
2022-10-08T19:01:59.026Z,11.33
2022-10-08T19:06:54.283Z,11.26
2022-10-08T19:11:54.225Z,11.17
2022-10-08T19:16:54.150Z,11.11
2022-10-08T19:21:54.075Z,11.07
2022-10-08T19:26:54.021Z,11.03
2022-10-08T19:31:53.940Z,10.95
2022-10-08T19:36:53.883Z,10.89
2022-10-08T19:41:53.833Z,10.86
2022-10-08T19:46:53.827Z,10.78
2022-10-08T19:51:53.677Z,10.77
2022-10-08T19:56:53.613Z,10.78
2022-10-08T20:01:53.620Z,10.75
2022-10-08T20:06:53.479Z,10.75
2022-10-08T20:11:53.415Z,10.68
2022-10-08T20:16:53.344Z,10.60
2022-10-08T20:21:53.281Z,10.59
2022-10-08T20:26:53.210Z,10.53
2022-10-08T20:31:53.144Z,10.48
2022-10-08T20:36:53.076Z,10.42
2022-10-08T20:41:53.024Z,10.44
2022-10-08T20:46:53.007Z,10.42
2022-10-08T20:51:52.867Z,10.37
2022-10-08T20:56:52.809Z,10.31
2022-10-08T21:01:52.778Z,10.28
2022-10-08T21:06:52.671Z,10.22
2022-10-08T21:11:52.597Z,10.16
2022-10-08T21:16:52.537Z,10.05
2022-10-08T21:21:52.471Z,9.99
2022-10-08T21:26:52.403Z,9.95
2022-10-08T21:31:52.405Z,9.87
2022-10-08T21:36:52.268Z,9.82
2022-10-08T21:41:52.204Z,9.76
2022-10-08T21:46:52.136Z,9.72
2022-10-08T21:51:52.070Z,9.65
2022-10-08T21:56:52.004Z,9.57
2022-10-08T22:01:51.960Z,9.53
2022-10-08T22:06:51.867Z,9.47
2022-10-08T22:11:51.792Z,9.43
2022-10-08T22:16:51.737Z,9.36
2022-10-08T22:21:51.662Z,9.30
2022-10-08T22:26:51.606Z,9.25
2022-10-08T22:31:51.607Z,9.22
2022-10-08T22:36:51.473Z,9.15
2022-10-08T22:41:51.405Z,9.12
2022-10-08T22:46:51.337Z,9.09
2022-10-08T22:51:51.275Z,9.10
2022-10-08T22:56:51.205Z,9.10
2022-10-08T23:01:51.244Z,9.09
2022-10-08T23:06:51.074Z,9.06
2022-10-08T23:11:51.012Z,9.04
2022-10-08T23:16:51.080Z,9.07
2022-10-08T23:21:50.866Z,9.10
2022-10-08T23:26:50.817Z,9.06
2022-10-08T23:31:50.783Z,9.00
2022-10-08T23:36:50.683Z,8.92
2022-10-08T23:41:50.600Z,8.92
2022-10-08T23:46:50.554Z,8.87
2022-10-08T23:51:50.465Z,8.84
2022-10-08T23:56:50.415Z,8.81
